sensor_id;sensor_type;location;lat;lon;timestamp;temperature;humidity
30572;DHT22;17348;50.948;10.696;2023-02-28T00:02:19;0.00;99.90
30572;DHT22;17348;50.948;10.696;2023-02-28T00:05:23;0.10;99.90
30572;DHT22;17348;50.948;10.696;2023-02-28T00:08:29;0.10;99.90
30572;DHT22;17348;50.948;10.696;2023-02-28T00:11:32;0.10;99.90
30572;DHT22;17348;50.948;10.696;2023-02-28T00:14:34;0.10;99.90
30572;DHT22;17348;50.948;10.696;2023-02-28T00:17:37;0.10;99.90
30572;DHT22;17348;50.948;10.696;2023-02-28T00:20:39;0.10;99.90
30572;DHT22;17348;50.948;10.696;2023-02-28T00:23:43;0.10;99.90
30572;DHT22;17348;50.948;10.696;2023-02-28T00:26:45;0.10;99.90
30572;DHT22;17348;50.948;10.696;2023-02-28T00:29:48;0.10;99.90
30572;DHT22;17348;50.948;10.696;2023-02-28T00:32:51;0.10;99.90
30572;DHT22;17348;50.948;10.696;2023-02-28T00:36:02;0.10;99.90
30572;DHT22;17348;50.948;10.696;2023-02-28T00:39:06;0.10;99.90
30572;DHT22;17348;50.948;10.696;2023-02-28T00:42:08;0.10;99.90
30572;DHT22;17348;50.948;10.696;2023-02-28T00:45:10;0.10;99.90
30572;DHT22;17348;50.948;10.696;2023-02-28T00:48:13;0.10;99.90
30572;DHT22;17348;50.948;10.696;2023-02-28T00:51:15;0.00;99.90
30572;DHT22;17348;50.948;10.696;2023-02-28T00:54:19;0.00;99.90
30572;DHT22;17348;50.948;10.696;2023-02-28T00:57:22;0.00;99.90
30572;DHT22;17348;50.948;10.696;2023-02-28T01:00:24;0.00;99.90
30572;DHT22;17348;50.948;10.696;2023-02-28T01:03:27;0.10;99.90
30572;DHT22;17348;50.948;10.696;2023-02-28T01:06:29;0.10;99.90
30572;DHT22;17348;50.948;10.696;2023-02-28T01:09:34;0.10;99.90
30572;DHT22;17348;50.948;10.696;2023-02-28T01:12:36;0.10;99.90
30572;DHT22;17348;50.948;10.696;2023-02-28T01:15:43;0.10;99.90
30572;DHT22;17348;50.948;10.696;2023-02-28T01:18:47;0.10;99.90
30572;DHT22;17348;50.948;10.696;2023-02-28T01:21:49;0.10;99.90
30572;DHT22;17348;50.948;10.696;2023-02-28T01:24:53;0.00;99.90
30572;DHT22;17348;50.948;10.696;2023-02-28T01:27:56;0.10;99.90
30572;DHT22;17348;50.948;10.696;2023-02-28T01:30:58;0.10;99.90
30572;DHT22;17348;50.948;10.696;2023-02-28T01:34:01;0.00;99.90
30572;DHT22;17348;50.948;10.696;2023-02-28T01:37:03;0.00;99.90
30572;DHT22;17348;50.948;10.696;2023-02-28T01:40:08;0.00;99.90
30572;DHT22;17348;50.948;10.696;2023-02-28T01:43:19;0.00;99.90
30572;DHT22;17348;50.948;10.696;2023-02-28T01:46:21;0.00;99.90
30572;DHT22;17348;50.948;10.696;2023-02-28T01:49:24;0.10;99.90
30572;DHT22;17348;50.948;10.696;2023-02-28T01:52:27;0.10;99.90
30572;DHT22;17348;50.948;10.696;2023-02-28T01:55:34;0.10;99.90
30572;DHT22;17348;50.948;10.696;2023-02-28T01:58:37;0.10;99.90
30572;DHT22;17348;50.948;10.696;2023-02-28T02:01:40;0.10;99.90
30572;DHT22;17348;50.948;10.696;2023-02-28T02:04:51;0.10;99.90
30572;DHT22;17348;50.948;10.696;2023-02-28T02:07:59;0.10;99.90
30572;DHT22;17348;50.948;10.696;2023-02-28T02:11:07;0.10;99.90
30572;DHT22;17348;50.948;10.696;2023-02-28T02:14:24;0.10;99.90
30572;DHT22;17348;50.948;10.696;2023-02-28T02:17:32;0.10;99.90
30572;DHT22;17348;50.948;10.696;2023-02-28T02:20:56;0.10;99.90
30572;DHT22;17348;50.948;10.696;2023-02-28T02:24:18;0.10;99.90
30572;DHT22;17348;50.948;10.696;2023-02-28T02:34:51;0.20;99.90
30572;DHT22;17348;50.948;10.696;2023-02-28T02:38:00;0.10;99.90
30572;DHT22;17348;50.948;10.696;2023-02-28T02:41:12;0.10;99.90
30572;DHT22;17348;50.948;10.696;2023-02-28T02:44:20;0.10;99.90
30572;DHT22;17348;50.948;10.696;2023-02-28T02:47:26;0.10;99.90
30572;DHT22;17348;50.948;10.696;2023-02-28T02:50:35;0.10;99.90
30572;DHT22;17348;50.948;10.696;2023-02-28T02:53:42;0.10;99.90
30572;DHT22;17348;50.948;10.696;2023-02-28T02:56:48;0.10;99.90
30572;DHT22;17348;50.948;10.696;2023-02-28T02:59:54;0.10;99.90
30572;DHT22;17348;50.948;10.696;2023-02-28T03:02:57;0.00;99.90
30572;DHT22;17348;50.948;10.696;2023-02-28T03:06:02;0.00;99.90
30572;DHT22;17348;50.948;10.696;2023-02-28T03:09:04;0.00;99.90
30572;DHT22;17348;50.948;10.696;2023-02-28T03:12:10;0.00;99.90
30572;DHT22;17348;50.948;10.696;2023-02-28T03:15:19;0.00;99.90
30572;DHT22;17348;50.948;10.696;2023-02-28T03:18:33;0.00;99.90
30572;DHT22;17348;50.948;10.696;2023-02-28T03:21:42;0.00;99.90
30572;DHT22;17348;50.948;10.696;2023-02-28T03:24:50;0.00;99.90
30572;DHT22;17348;50.948;10.696;2023-02-28T03:27:59;0.00;99.90
30572;DHT22;17348;50.948;10.696;2023-02-28T03:31:07;0.00;99.90
30572;DHT22;17348;50.948;10.696;2023-02-28T03:34:16;0.00;99.90
30572;DHT22;17348;50.948;10.696;2023-02-28T03:37:22;0.00;99.90
30572;DHT22;17348;50.948;10.696;2023-02-28T03:40:28;0.00;99.90
30572;DHT22;17348;50.948;10.696;2023-02-28T03:43:34;0.00;99.90
30572;DHT22;17348;50.948;10.696;2023-02-28T03:46:42;0.00;99.90
30572;DHT22;17348;50.948;10.696;2023-02-28T03:49:52;0.00;99.90
30572;DHT22;17348;50.948;10.696;2023-02-28T03:53:00;0.00;99.90
30572;DHT22;17348;50.948;10.696;2023-02-28T03:56:09;0.00;99.90
30572;DHT22;17348;50.948;10.696;2023-02-28T03:59:16;-0.10;99.90
30572;DHT22;17348;50.948;10.696;2023-02-28T04:02:21;-0.10;99.90
30572;DHT22;17348;50.948;10.696;2023-02-28T04:05:24;-0.10;99.90
30572;DHT22;17348;50.948;10.696;2023-02-28T04:08:28;-0.10;99.90
30572;DHT22;17348;50.948;10.696;2023-02-28T04:11:33;-0.10;99.90
30572;DHT22;17348;50.948;10.696;2023-02-28T04:14:36;-0.10;99.90
30572;DHT22;17348;50.948;10.696;2023-02-28T04:17:40;-0.10;99.90
30572;DHT22;17348;50.948;10.696;2023-02-28T04:20:42;-0.10;99.90
30572;DHT22;17348;50.948;10.696;2023-02-28T04:23:46;-0.10;99.90
30572;DHT22;17348;50.948;10.696;2023-02-28T04:26:50;-0.10;99.90
30572;DHT22;17348;50.948;10.696;2023-02-28T04:29:52;-0.10;99.90
30572;DHT22;17348;50.948;10.696;2023-02-28T04:32:54;-0.10;99.90
30572;DHT22;17348;50.948;10.696;2023-02-28T04:36:01;-0.10;99.90
30572;DHT22;17348;50.948;10.696;2023-02-28T04:39:05;-0.10;99.90
30572;DHT22;17348;50.948;10.696;2023-02-28T04:42:08;-0.10;99.90
30572;DHT22;17348;50.948;10.696;2023-02-28T04:45:11;-0.10;99.90
30572;DHT22;17348;50.948;10.696;2023-02-28T04:48:13;-0.10;99.90
30572;DHT22;17348;50.948;10.696;2023-02-28T04:51:18;-0.10;99.90
30572;DHT22;17348;50.948;10.696;2023-02-28T04:54:21;-0.10;99.90
30572;DHT22;17348;50.948;10.696;2023-02-28T04:57:24;-0.10;99.90
30572;DHT22;17348;50.948;10.696;2023-02-28T05:00:26;-0.10;99.90
30572;DHT22;17348;50.948;10.696;2023-02-28T05:03:28;-0.10;99.90
30572;DHT22;17348;50.948;10.696;2023-02-28T05:06:32;-0.10;99.90
30572;DHT22;17348;50.948;10.696;2023-02-28T05:09:36;-0.10;99.90
30572;DHT22;17348;50.948;10.696;2023-02-28T05:12:38;-0.10;99.90
30572;DHT22;17348;50.948;10.696;2023-02-28T05:15:40;-0.10;99.90
30572;DHT22;17348;50.948;10.696;2023-02-28T05:18:43;-0.10;99.90
30572;DHT22;17348;50.948;10.696;2023-02-28T05:21:51;-0.10;99.90
30572;DHT22;17348;50.948;10.696;2023-02-28T05:24:55;-0.10;99.90
30572;DHT22;17348;50.948;10.696;2023-02-28T05:27:57;-0.10;99.90
30572;DHT22;17348;50.948;10.696;2023-02-28T05:31:00;-0.10;99.90
30572;DHT22;17348;50.948;10.696;2023-02-28T05:34:02;-0.10;99.90
30572;DHT22;17348;50.948;10.696;2023-02-28T05:37:05;-0.10;99.90
30572;DHT22;17348;50.948;10.696;2023-02-28T05:40:10;-0.20;99.90
30572;DHT22;17348;50.948;10.696;2023-02-28T05:43:13;-0.10;99.90
30572;DHT22;17348;50.948;10.696;2023-02-28T05:46:16;-0.20;99.90
30572;DHT22;17348;50.948;10.696;2023-02-28T05:49:18;-0.20;99.90
30572;DHT22;17348;50.948;10.696;2023-02-28T05:52:20;-0.30;99.90
30572;DHT22;17348;50.948;10.696;2023-02-28T05:55:24;-0.30;99.90
30572;DHT22;17348;50.948;10.696;2023-02-28T05:58:27;-0.30;99.90
30572;DHT22;17348;50.948;10.696;2023-02-28T06:01:33;-0.40;99.90
30572;DHT22;17348;50.948;10.696;2023-02-28T06:04:36;-0.30;99.90
30572;DHT22;17348;50.948;10.696;2023-02-28T06:07:38;-0.40;99.90
30572;DHT22;17348;50.948;10.696;2023-02-28T06:10:42;-0.40;99.90
30572;DHT22;17348;50.948;10.696;2023-02-28T06:13:44;-0.40;99.90
30572;DHT22;17348;50.948;10.696;2023-02-28T06:16:47;-0.40;99.90
30572;DHT22;17348;50.948;10.696;2023-02-28T06:19:49;-0.40;99.90
30572;DHT22;17348;50.948;10.696;2023-02-28T06:22:51;-0.50;99.90
30572;DHT22;17348;50.948;10.696;2023-02-28T06:25:56;-0.40;99.90
30572;DHT22;17348;50.948;10.696;2023-02-28T06:28:59;-0.50;99.90
30572;DHT22;17348;50.948;10.696;2023-02-28T06:32:02;-0.50;99.90
30572;DHT22;17348;50.948;10.696;2023-02-28T06:35:05;-0.50;99.90
30572;DHT22;17348;50.948;10.696;2023-02-28T06:38:07;-0.40;99.90
30572;DHT22;17348;50.948;10.696;2023-02-28T06:41:11;1.10;99.90
30572;DHT22;17348;50.948;10.696;2023-02-28T06:44:15;3.00;99.90
30572;DHT22;17348;50.948;10.696;2023-02-28T06:47:18;4.10;99.90
30572;DHT22;17348;50.948;10.696;2023-02-28T06:50:20;4.70;99.90
30572;DHT22;17348;50.948;10.696;2023-02-28T06:53:22;4.30;99.90
30572;DHT22;17348;50.948;10.696;2023-02-28T06:56:26;3.50;99.90
30572;DHT22;17348;50.948;10.696;2023-02-28T06:59:28;2.80;99.90
30572;DHT22;17348;50.948;10.696;2023-02-28T07:02:31;2.60;99.90
30572;DHT22;17348;50.948;10.696;2023-02-28T07:05:34;4.40;99.90
30572;DHT22;17348;50.948;10.696;2023-02-28T07:08:37;4.90;99.90
30572;DHT22;17348;50.948;10.696;2023-02-28T07:11:42;5.10;99.90
30572;DHT22;17348;50.948;10.696;2023-02-28T07:14:44;5.50;99.90
30572;DHT22;17348;50.948;10.696;2023-02-28T07:17:47;5.40;99.90
30572;DHT22;17348;50.948;10.696;2023-02-28T07:20:49;5.70;99.90
30572;DHT22;17348;50.948;10.696;2023-02-28T07:23:51;6.40;99.90
30572;DHT22;17348;50.948;10.696;2023-02-28T07:26:55;6.90;99.90
30572;DHT22;17348;50.948;10.696;2023-02-28T07:29:58;8.20;99.90
30572;DHT22;17348;50.948;10.696;2023-02-28T07:33:02;8.60;99.90
30572;DHT22;17348;50.948;10.696;2023-02-28T07:36:07;7.20;99.90
30572;DHT22;17348;50.948;10.696;2023-02-28T07:39:10;5.80;99.90
30572;DHT22;17348;50.948;10.696;2023-02-28T07:42:13;6.90;99.90
30572;DHT22;17348;50.948;10.696;2023-02-28T07:45:16;8.30;99.90
30572;DHT22;17348;50.948;10.696;2023-02-28T07:48:18;8.70;99.90
30572;DHT22;17348;50.948;10.696;2023-02-28T07:51:22;8.10;99.90
30572;DHT22;17348;50.948;10.696;2023-02-28T07:54:24;6.90;99.90
30572;DHT22;17348;50.948;10.696;2023-02-28T07:57:28;5.70;99.90
30572;DHT22;17348;50.948;10.696;2023-02-28T08:00:30;5.50;99.90
30572;DHT22;17348;50.948;10.696;2023-02-28T08:03:33;4.70;99.90
30572;DHT22;17348;50.948;10.696;2023-02-28T08:06:36;4.00;99.90
30572;DHT22;17348;50.948;10.696;2023-02-28T08:09:38;3.60;99.90
30572;DHT22;17348;50.948;10.696;2023-02-28T08:12:42;3.20;99.90
30572;DHT22;17348;50.948;10.696;2023-02-28T08:15:44;2.70;99.90
30572;DHT22;17348;50.948;10.696;2023-02-28T08:18:48;2.50;99.90
30572;DHT22;17348;50.948;10.696;2023-02-28T08:21:51;2.30;99.90
30572;DHT22;17348;50.948;10.696;2023-02-28T08:24:53;2.10;99.90
30572;DHT22;17348;50.948;10.696;2023-02-28T08:27:57;1.90;99.90
30572;DHT22;17348;50.948;10.696;2023-02-28T08:31:00;1.90;99.90
30572;DHT22;17348;50.948;10.696;2023-02-28T08:34:05;1.80;99.90
30572;DHT22;17348;50.948;10.696;2023-02-28T08:37:07;1.70;99.90
30572;DHT22;17348;50.948;10.696;2023-02-28T08:40:10;1.80;99.90
30572;DHT22;17348;50.948;10.696;2023-02-28T08:43:20;1.90;99.90
30572;DHT22;17348;50.948;10.696;2023-02-28T08:46:22;1.90;99.90
30572;DHT22;17348;50.948;10.696;2023-02-28T08:49:25;1.90;99.90
30572;DHT22;17348;50.948;10.696;2023-02-28T08:52:27;1.90;99.90
30572;DHT22;17348;50.948;10.696;2023-02-28T08:55:29;1.90;99.90
30572;DHT22;17348;50.948;10.696;2023-02-28T08:58:33;1.90;99.90
30572;DHT22;17348;50.948;10.696;2023-02-28T09:01:36;1.90;99.90
30572;DHT22;17348;50.948;10.696;2023-02-28T09:04:38;1.90;99.90
30572;DHT22;17348;50.948;10.696;2023-02-28T09:07:40;2.00;99.90
30572;DHT22;17348;50.948;10.696;2023-02-28T09:10:43;2.00;99.90
30572;DHT22;17348;50.948;10.696;2023-02-28T09:13:47;2.10;99.90
30572;DHT22;17348;50.948;10.696;2023-02-28T09:16:49;2.10;99.90
30572;DHT22;17348;50.948;10.696;2023-02-28T09:19:51;2.10;99.90
30572;DHT22;17348;50.948;10.696;2023-02-28T09:22:53;2.20;99.90
30572;DHT22;17348;50.948;10.696;2023-02-28T09:25:56;2.20;99.90
30572;DHT22;17348;50.948;10.696;2023-02-28T09:29:00;2.30;99.90
30572;DHT22;17348;50.948;10.696;2023-02-28T09:32:04;2.50;99.90
30572;DHT22;17348;50.948;10.696;2023-02-28T09:35:07;2.70;99.90
30572;DHT22;17348;50.948;10.696;2023-02-28T09:38:14;2.90;99.90
30572;DHT22;17348;50.948;10.696;2023-02-28T09:41:20;3.10;99.90
30572;DHT22;17348;50.948;10.696;2023-02-28T09:44:28;3.10;99.90
30572;DHT22;17348;50.948;10.696;2023-02-28T09:47:33;3.10;99.90
30572;DHT22;17348;50.948;10.696;2023-02-28T09:50:39;3.10;99.90
30572;DHT22;17348;50.948;10.696;2023-02-28T09:53:43;3.10;99.90
30572;DHT22;17348;50.948;10.696;2023-02-28T09:56:50;3.10;99.90
30572;DHT22;17348;50.948;10.696;2023-02-28T10:00:04;3.10;99.90
30572;DHT22;17348;50.948;10.696;2023-02-28T10:03:25;3.10;99.90
30572;DHT22;17348;50.948;10.696;2023-02-28T10:06:32;3.10;99.90
30572;DHT22;17348;50.948;10.696;2023-02-28T10:09:36;3.20;99.90
30572;DHT22;17348;50.948;10.696;2023-02-28T10:12:42;3.30;99.90
30572;DHT22;17348;50.948;10.696;2023-02-28T10:15:49;3.40;99.90
30572;DHT22;17348;50.948;10.696;2023-02-28T10:18:56;3.40;99.90
30572;DHT22;17348;50.948;10.696;2023-02-28T10:22:02;3.40;99.90
30572;DHT22;17348;50.948;10.696;2023-02-28T10:25:17;3.50;99.90
30572;DHT22;17348;50.948;10.696;2023-02-28T10:28:19;3.50;99.90
30572;DHT22;17348;50.948;10.696;2023-02-28T10:31:23;3.40;99.90
30572;DHT22;17348;50.948;10.696;2023-02-28T10:34:26;3.30;99.90
30572;DHT22;17348;50.948;10.696;2023-02-28T10:37:28;3.30;99.90
30572;DHT22;17348;50.948;10.696;2023-02-28T10:40:34;3.10;99.90
30572;DHT22;17348;50.948;10.696;2023-02-28T10:43:38;3.10;99.90
30572;DHT22;17348;50.948;10.696;2023-02-28T10:46:42;3.00;99.90
30572;DHT22;17348;50.948;10.696;2023-02-28T10:49:48;3.20;99.90
30572;DHT22;17348;50.948;10.696;2023-02-28T10:52:53;3.20;99.90
30572;DHT22;17348;50.948;10.696;2023-02-28T10:55:57;3.00;99.90
30572;DHT22;17348;50.948;10.696;2023-02-28T10:59:02;2.90;99.90
30572;DHT22;17348;50.948;10.696;2023-02-28T11:02:30;3.00;99.90
30572;DHT22;17348;50.948;10.696;2023-02-28T11:05:35;3.20;99.90
30572;DHT22;17348;50.948;10.696;2023-02-28T11:08:45;3.40;99.90
30572;DHT22;17348;50.948;10.696;2023-02-28T11:11:49;3.50;99.90
30572;DHT22;17348;50.948;10.696;2023-02-28T11:14:54;3.60;99.90
30572;DHT22;17348;50.948;10.696;2023-02-28T11:18:00;3.60;99.90
30572;DHT22;17348;50.948;10.696;2023-02-28T11:21:03;3.50;99.90
30572;DHT22;17348;50.948;10.696;2023-02-28T11:24:14;3.50;99.90
30572;DHT22;17348;50.948;10.696;2023-02-28T11:27:46;3.60;99.90
30572;DHT22;17348;50.948;10.696;2023-02-28T11:31:00;3.40;99.90
30572;DHT22;17348;50.948;10.696;2023-02-28T11:34:27;3.40;99.90
30572;DHT22;17348;50.948;10.696;2023-02-28T11:37:31;3.70;99.90
30572;DHT22;17348;50.948;10.696;2023-02-28T11:40:39;3.70;99.90
30572;DHT22;17348;50.948;10.696;2023-02-28T11:43:58;3.70;99.90
30572;DHT22;17348;50.948;10.696;2023-02-28T11:47:08;3.70;99.90
30572;DHT22;17348;50.948;10.696;2023-02-28T11:50:22;3.80;99.90
30572;DHT22;17348;50.948;10.696;2023-02-28T11:53:41;3.80;99.90
30572;DHT22;17348;50.948;10.696;2023-02-28T11:56:48;3.80;99.90
30572;DHT22;17348;50.948;10.696;2023-02-28T11:59:56;3.70;99.90
30572;DHT22;17348;50.948;10.696;2023-02-28T12:03:23;3.60;99.90
30572;DHT22;17348;50.948;10.696;2023-02-28T12:06:33;3.60;99.90
30572;DHT22;17348;50.948;10.696;2023-02-28T12:09:50;3.70;99.90
30572;DHT22;17348;50.948;10.696;2023-02-28T12:13:08;3.60;99.90
30572;DHT22;17348;50.948;10.696;2023-02-28T12:16:27;3.60;99.90
30572;DHT22;17348;50.948;10.696;2023-02-28T12:19:41;3.60;99.90
30572;DHT22;17348;50.948;10.696;2023-02-28T12:22:54;3.60;99.90
30572;DHT22;17348;50.948;10.696;2023-02-28T12:26:11;3.60;99.90
30572;DHT22;17348;50.948;10.696;2023-02-28T12:29:21;3.60;99.90
30572;DHT22;17348;50.948;10.696;2023-02-28T12:32:27;3.60;99.90
30572;DHT22;17348;50.948;10.696;2023-02-28T12:35:35;3.50;99.90
30572;DHT22;17348;50.948;10.696;2023-02-28T12:38:43;3.50;99.90
30572;DHT22;17348;50.948;10.696;2023-02-28T12:41:51;3.50;99.90
30572;DHT22;17348;50.948;10.696;2023-02-28T12:44:59;3.50;99.90
30572;DHT22;17348;50.948;10.696;2023-02-28T12:48:06;3.50;99.90
30572;DHT22;17348;50.948;10.696;2023-02-28T12:51:11;3.40;99.90
30572;DHT22;17348;50.948;10.696;2023-02-28T12:54:22;3.40;99.90
30572;DHT22;17348;50.948;10.696;2023-02-28T12:57:33;3.40;99.90
30572;DHT22;17348;50.948;10.696;2023-02-28T13:00:49;3.50;99.90
30572;DHT22;17348;50.948;10.696;2023-02-28T13:04:40;3.60;99.90
30572;DHT22;17348;50.948;10.696;2023-02-28T13:08:17;3.80;99.90
30572;DHT22;17348;50.948;10.696;2023-02-28T13:11:27;4.00;99.90
30572;DHT22;17348;50.948;10.696;2023-02-28T13:14:36;4.00;99.90
30572;DHT22;17348;50.948;10.696;2023-02-28T13:17:39;4.00;99.90
30572;DHT22;17348;50.948;10.696;2023-02-28T13:20:48;4.10;99.90
30572;DHT22;17348;50.948;10.696;2023-02-28T13:24:03;4.10;99.90
30572;DHT22;17348;50.948;10.696;2023-02-28T13:27:36;4.00;99.90
30572;DHT22;17348;50.948;10.696;2023-02-28T13:31:05;4.00;99.90
30572;DHT22;17348;50.948;10.696;2023-02-28T13:34:15;4.00;99.90
30572;DHT22;17348;50.948;10.696;2023-02-28T13:37:34;4.00;99.90
30572;DHT22;17348;50.948;10.696;2023-02-28T13:40:37;4.10;99.90
30572;DHT22;17348;50.948;10.696;2023-02-28T13:44:05;4.10;99.90
30572;DHT22;17348;50.948;10.696;2023-02-28T13:47:28;4.10;99.90
30572;DHT22;17348;50.948;10.696;2023-02-28T13:50:33;4.10;99.90
30572;DHT22;17348;50.948;10.696;2023-02-28T13:53:53;4.10;99.90
30572;DHT22;17348;50.948;10.696;2023-02-28T13:57:11;4.20;99.90
30572;DHT22;17348;50.948;10.696;2023-02-28T14:00:28;4.30;99.90
30572;DHT22;17348;50.948;10.696;2023-02-28T14:03:44;4.20;99.90
30572;DHT22;17348;50.948;10.696;2023-02-28T14:06:53;4.20;99.90
30572;DHT22;17348;50.948;10.696;2023-02-28T14:10:00;4.10;99.90
30572;DHT22;17348;50.948;10.696;2023-02-28T14:16:39;4.20;99.90
30572;DHT22;17348;50.948;10.696;2023-02-28T14:19:45;4.30;99.90
30572;DHT22;17348;50.948;10.696;2023-02-28T14:22:57;4.30;99.90
30572;DHT22;17348;50.948;10.696;2023-02-28T14:26:10;4.20;99.90
30572;DHT22;17348;50.948;10.696;2023-02-28T14:29:37;4.30;99.90
30572;DHT22;17348;50.948;10.696;2023-02-28T14:32:54;4.20;99.90
30572;DHT22;17348;50.948;10.696;2023-02-28T14:36:20;4.10;99.90
30572;DHT22;17348;50.948;10.696;2023-02-28T14:39:25;4.00;99.90
30572;DHT22;17348;50.948;10.696;2023-02-28T14:42:30;4.00;99.90
30572;DHT22;17348;50.948;10.696;2023-02-28T14:45:35;3.80;99.90
30572;DHT22;17348;50.948;10.696;2023-02-28T14:48:39;3.80;99.90
30572;DHT22;17348;50.948;10.696;2023-02-28T14:51:42;3.80;99.90
30572;DHT22;17348;50.948;10.696;2023-02-28T14:54:45;3.80;99.90
30572;DHT22;17348;50.948;10.696;2023-02-28T14:57:52;3.80;99.90
30572;DHT22;17348;50.948;10.696;2023-02-28T15:00:56;3.70;99.90
30572;DHT22;17348;50.948;10.696;2023-02-28T15:04:02;3.70;99.90
30572;DHT22;17348;50.948;10.696;2023-02-28T15:07:09;3.70;99.90
30572;DHT22;17348;50.948;10.696;2023-02-28T15:10:22;3.60;99.90
30572;DHT22;17348;50.948;10.696;2023-02-28T15:13:31;3.60;99.90
30572;DHT22;17348;50.948;10.696;2023-02-28T15:16:40;3.40;99.90
30572;DHT22;17348;50.948;10.696;2023-02-28T15:19:49;3.30;99.90
30572;DHT22;17348;50.948;10.696;2023-02-28T15:22:55;3.20;99.90
30572;DHT22;17348;50.948;10.696;2023-02-28T15:25:59;3.20;99.90
30572;DHT22;17348;50.948;10.696;2023-02-28T15:29:05;3.10;99.90
30572;DHT22;17348;50.948;10.696;2023-02-28T15:32:28;3.00;99.90
30572;DHT22;17348;50.948;10.696;2023-02-28T15:35:32;3.00;99.90
30572;DHT22;17348;50.948;10.696;2023-02-28T15:38:35;3.00;99.90
30572;DHT22;17348;50.948;10.696;2023-02-28T15:41:38;3.00;99.90
30572;DHT22;17348;50.948;10.696;2023-02-28T15:44:41;2.90;99.90
30572;DHT22;17348;50.948;10.696;2023-02-28T15:47:45;2.90;99.90
30572;DHT22;17348;50.948;10.696;2023-02-28T15:50:52;2.80;99.90
30572;DHT22;17348;50.948;10.696;2023-02-28T15:53:57;2.80;99.90
30572;DHT22;17348;50.948;10.696;2023-02-28T15:57:04;2.70;99.90
30572;DHT22;17348;50.948;10.696;2023-02-28T16:00:12;2.70;99.90
30572;DHT22;17348;50.948;10.696;2023-02-28T16:03:38;2.60;99.90
30572;DHT22;17348;50.948;10.696;2023-02-28T16:06:43;2.70;99.90
30572;DHT22;17348;50.948;10.696;2023-02-28T16:09:45;2.70;99.90
30572;DHT22;17348;50.948;10.696;2023-02-28T16:12:49;2.60;99.90
30572;DHT22;17348;50.948;10.696;2023-02-28T16:15:51;2.60;99.90
30572;DHT22;17348;50.948;10.696;2023-02-28T16:18:55;2.60;99.90
30572;DHT22;17348;50.948;10.696;2023-02-28T16:21:59;2.60;99.90
30572;DHT22;17348;50.948;10.696;2023-02-28T16:25:01;2.60;99.90
30572;DHT22;17348;50.948;10.696;2023-02-28T16:28:09;2.60;99.90
30572;DHT22;17348;50.948;10.696;2023-02-28T16:31:14;2.60;99.90
30572;DHT22;17348;50.948;10.696;2023-02-28T16:34:17;2.50;99.90
30572;DHT22;17348;50.948;10.696;2023-02-28T16:37:21;2.40;99.90
30572;DHT22;17348;50.948;10.696;2023-02-28T16:40:25;2.30;99.90
30572;DHT22;17348;50.948;10.696;2023-02-28T16:43:29;2.30;99.90
30572;DHT22;17348;50.948;10.696;2023-02-28T16:46:34;2.20;99.90
30572;DHT22;17348;50.948;10.696;2023-02-28T16:49:37;2.20;99.90
30572;DHT22;17348;50.948;10.696;2023-02-28T16:52:42;2.10;99.90
30572;DHT22;17348;50.948;10.696;2023-02-28T16:55:44;2.00;99.90
30572;DHT22;17348;50.948;10.696;2023-02-28T16:58:49;2.00;99.90
30572;DHT22;17348;50.948;10.696;2023-02-28T17:01:52;1.90;99.90
30572;DHT22;17348;50.948;10.696;2023-02-28T17:04:54;1.90;99.90
30572;DHT22;17348;50.948;10.696;2023-02-28T17:07:58;1.80;99.90
30572;DHT22;17348;50.948;10.696;2023-02-28T17:11:00;1.70;99.90
30572;DHT22;17348;50.948;10.696;2023-02-28T17:14:03;1.70;99.90
30572;DHT22;17348;50.948;10.696;2023-02-28T17:17:06;1.60;99.90
30572;DHT22;17348;50.948;10.696;2023-02-28T17:20:12;1.60;99.90
30572;DHT22;17348;50.948;10.696;2023-02-28T17:23:16;1.50;99.90
30572;DHT22;17348;50.948;10.696;2023-02-28T17:26:20;1.50;99.90
30572;DHT22;17348;50.948;10.696;2023-02-28T17:29:22;1.40;99.90
30572;DHT22;17348;50.948;10.696;2023-02-28T17:32:25;1.40;99.90
30572;DHT22;17348;50.948;10.696;2023-02-28T17:35:28;1.40;99.90
30572;DHT22;17348;50.948;10.696;2023-02-28T17:38:32;1.30;99.90
30572;DHT22;17348;50.948;10.696;2023-02-28T17:41:34;1.30;99.90
30572;DHT22;17348;50.948;10.696;2023-02-28T17:44:37;1.30;99.90
30572;DHT22;17348;50.948;10.696;2023-02-28T17:47:40;1.20;99.90
30572;DHT22;17348;50.948;10.696;2023-02-28T17:50:43;1.20;99.90
30572;DHT22;17348;50.948;10.696;2023-02-28T17:53:47;1.20;99.90
30572;DHT22;17348;50.948;10.696;2023-02-28T17:56:50;1.10;99.90
30572;DHT22;17348;50.948;10.696;2023-02-28T17:59:52;1.10;99.90
30572;DHT22;17348;50.948;10.696;2023-02-28T18:02:54;1.10;99.90
30572;DHT22;17348;50.948;10.696;2023-02-28T18:05:57;1.10;99.90
30572;DHT22;17348;50.948;10.696;2023-02-28T18:09:01;1.00;99.90
30572;DHT22;17348;50.948;10.696;2023-02-28T18:12:04;1.00;99.90
30572;DHT22;17348;50.948;10.696;2023-02-28T18:15:07;1.00;99.90
30572;DHT22;17348;50.948;10.696;2023-02-28T18:18:09;0.90;99.90
30572;DHT22;17348;50.948;10.696;2023-02-28T18:21:14;0.90;99.90
30572;DHT22;17348;50.948;10.696;2023-02-28T18:24:19;0.80;99.90
30572;DHT22;17348;50.948;10.696;2023-02-28T18:27:21;0.80;99.90
30572;DHT22;17348;50.948;10.696;2023-02-28T18:30:25;0.70;99.90
30572;DHT22;17348;50.948;10.696;2023-02-28T18:33:30;0.70;99.90
30572;DHT22;17348;50.948;10.696;2023-02-28T18:36:32;0.70;99.90
30572;DHT22;17348;50.948;10.696;2023-02-28T18:39:36;0.70;99.90
30572;DHT22;17348;50.948;10.696;2023-02-28T18:42:38;0.60;99.90
30572;DHT22;17348;50.948;10.696;2023-02-28T18:45:40;0.60;99.90
30572;DHT22;17348;50.948;10.696;2023-02-28T18:48:43;0.50;99.90
30572;DHT22;17348;50.948;10.696;2023-02-28T18:51:46;0.50;99.90
30572;DHT22;17348;50.948;10.696;2023-02-28T18:54:50;0.40;99.90
30572;DHT22;17348;50.948;10.696;2023-02-28T18:57:52;0.40;99.90
30572;DHT22;17348;50.948;10.696;2023-02-28T19:00:55;0.40;99.90
30572;DHT22;17348;50.948;10.696;2023-02-28T19:03:58;0.30;99.90
30572;DHT22;17348;50.948;10.696;2023-02-28T19:07:01;0.30;99.90
30572;DHT22;17348;50.948;10.696;2023-02-28T19:10:06;0.20;99.90
30572;DHT22;17348;50.948;10.696;2023-02-28T19:13:09;0.20;99.90
30572;DHT22;17348;50.948;10.696;2023-02-28T19:16:13;0.10;99.90
30572;DHT22;17348;50.948;10.696;2023-02-28T19:19:15;0.10;99.90
30572;DHT22;17348;50.948;10.696;2023-02-28T19:22:18;0.10;99.90
30572;DHT22;17348;50.948;10.696;2023-02-28T19:25:22;0.10;99.90
30572;DHT22;17348;50.948;10.696;2023-02-28T19:28:27;0.10;99.90
30572;DHT22;17348;50.948;10.696;2023-02-28T19:31:30;0.10;99.90
30572;DHT22;17348;50.948;10.696;2023-02-28T19:34:32;0.10;99.90
30572;DHT22;17348;50.948;10.696;2023-02-28T19:37:36;0.00;99.90
30572;DHT22;17348;50.948;10.696;2023-02-28T19:40:41;0.00;99.90
30572;DHT22;17348;50.948;10.696;2023-02-28T19:43:44;0.00;99.90